createdAt,value
2022-08-21T00:00:01.840Z,26.5
2022-08-21T00:15:05.238Z,26.5
2022-08-21T00:30:02.112Z,26.5
2022-08-21T00:45:02.883Z,26.4
2022-08-21T01:00:02.970Z,26.5
2022-08-21T01:15:03.196Z,26.4
2022-08-21T01:30:02.843Z,26.4
2022-08-21T01:45:03.109Z,26.3
2022-08-21T02:00:04.340Z,26.3
2022-08-21T02:15:05.380Z,26.2
2022-08-21T02:30:06.321Z,26.2
2022-08-21T02:45:03.082Z,26.1
2022-08-21T03:00:05.289Z,26
2022-08-21T03:15:03.220Z,25.9
2022-08-21T03:30:04.871Z,25.9
2022-08-21T03:45:03.372Z,25.8
2022-08-21T04:00:06.016Z,25.8
2022-08-21T04:15:05.224Z,25.7
2022-08-21T04:30:02.144Z,25.7
2022-08-21T04:45:04.955Z,25.7
2022-08-21T05:00:03.853Z,25.7
2022-08-21T05:15:01.935Z,25.7
2022-08-21T05:30:02.288Z,25.7
2022-08-21T05:45:06.068Z,25.5
2022-08-21T06:15:04.023Z,25.1
2022-08-21T06:30:02.087Z,25
2022-08-21T06:45:05.917Z,24.9
2022-08-21T07:00:03.260Z,24.8
2022-08-21T07:15:04.909Z,24.8
2022-08-21T07:30:05.397Z,24.8
2022-08-21T07:45:03.314Z,24.8
2022-08-21T08:00:04.948Z,24.8
2022-08-21T08:15:01.827Z,24.8
2022-08-21T08:30:03.214Z,24.8
2022-08-21T09:00:05.149Z,25
2022-08-21T09:15:06.010Z,25.1
2022-08-21T09:30:05.372Z,25.1
2022-08-21T09:45:05.271Z,25.3
2022-08-21T10:00:04.201Z,25.4
2022-08-21T10:15:06.309Z,25.5
2022-08-21T10:30:01.949Z,25.5
2022-08-21T10:45:05.358Z,25.7
2022-08-21T11:00:06.284Z,25.8
2022-08-21T11:15:05.052Z,25.9
2022-08-21T11:30:01.955Z,26
2022-08-21T11:45:04.363Z,26.1
2022-08-21T12:00:01.837Z,26.2
2022-08-21T12:15:02.253Z,26.3
2022-08-21T12:30:01.967Z,26.4
2022-08-21T12:45:02.328Z,26.4
2022-08-21T13:00:05.181Z,26.4
2022-08-21T13:15:02.121Z,26.4
2022-08-21T13:30:02.915Z,26.4
2022-08-21T13:45:06.140Z,26.4
2022-08-21T14:00:05.958Z,26.5
2022-08-21T14:15:05.280Z,26.6
2022-08-21T14:30:02.192Z,26.6
2022-08-21T14:45:01.990Z,26.7
2022-08-21T15:00:06.402Z,26.8
2022-08-21T15:15:04.161Z,26.8
2022-08-21T15:30:02.233Z,26.8
2022-08-21T15:45:03.045Z,26.8
2022-08-21T16:00:06.211Z,26.8
2022-08-21T16:15:03.967Z,26.8
2022-08-21T16:30:05.090Z,26.8
2022-08-21T16:45:05.999Z,26.8
2022-08-21T17:00:04.209Z,26.8
2022-08-21T17:15:03.284Z,26.8
2022-08-21T17:30:04.950Z,26.8
2022-08-21T17:45:04.376Z,26.9
2022-08-21T18:00:02.883Z,26.9
2022-08-21T18:15:04.119Z,26.9
2022-08-21T18:30:05.236Z,26.9
2022-08-21T18:45:02.158Z,26.9
2022-08-21T19:00:02.173Z,26.9
2022-08-21T19:15:02.326Z,26.8
2022-08-21T19:30:03.138Z,26.8
2022-08-21T19:45:05.366Z,26.8
2022-08-21T20:00:04.261Z,26.8
2022-08-21T20:15:05.371Z,26.8
2022-08-21T20:30:02.257Z,26.8
2022-08-21T20:45:04.032Z,26.8
2022-08-21T21:00:04.116Z,26.8
2022-08-21T21:15:05.198Z,26.8
2022-08-21T21:30:06.134Z,26.8
2022-08-21T21:45:03.459Z,26.8
2022-08-21T22:00:06.111Z,26.8
2022-08-21T22:15:02.363Z,26.8
2022-08-21T22:30:02.187Z,26.7
2022-08-21T22:45:01.959Z,26.6
2022-08-21T23:00:05.332Z,26.6
2022-08-21T23:15:04.252Z,26.5
2022-08-21T23:30:03.289Z,26.5
2022-08-21T23:45:05.982Z,26.5
